Latest Coastal Weather Observations for Legendre Island

IDW60701

Issued at 11:33 am WST Sunday 25 June 2017 (issued every 10 minutes, with the page automatically refreshed every 10 minutes)

About coastal observations | Map of coastal stations | Coastal observations for WA | Marine services | Other Formats
Station Details ID: 004095 Name: LEGENDRE ISLAND Lat: -20.36 Lon: 116.84 Height: 29.0 m
Data from the previous 72 hours. | See also: Recent months at Legendre Island
Date/Time
WST
Temp
°C
Wind Pressure Rain since
9am
mm
Weather Cloud Vis
km
Sea
Height
m
Swell
Dir  Spd
kts
Gust
kts
hPa Trend Height
m
Period
s
Dir
25/11:30am 24.1 WSW 9 11 1014.2 - - - - - - - - -
25/11:00am 23.8 SW 8 11 1014.8 - - - - - - - - -
25/10:30am 23.4 SW 7 8 1015.0 - - - - - - - - -
25/10:00am 23.1 SW 6 8 1015.2 - - - - - - - - -
25/09:30am 22.9 SW 6 8 1015.4 - - - - - - - - -
25/09:00am 21.7 SW 7 8 1015.3 - - - - - - - - -
25/08:30am 20.9 SW 7 9 1015.0 - - - - - - - - -
25/08:00am 19.8 SW 9 10 1014.7 - - - - - - - - -
25/07:30am 19.1 SW 11 13 1014.3 - - - - - - - - -
25/07:00am 19.0 SW 13 15 1013.9 - - - - - - - - -
25/06:30am 19.0 SW 13 16 1013.7 - - - - - - - - -
25/06:00am 19.0 SW 15 19 1013.3 - - - - - - - - -
25/05:30am 19.1 SW 17 20 1013.1 - - - - - - - - -
25/05:00am 19.0 SW 17 20 1013.1 - - - - - - - - -
25/04:30am 19.3 SW 17 20 1013.2 - - - - - - - - -
25/04:00am 19.7 SW 19 23 1013.1 - - - - - - - - -
25/03:30am 19.8 SW 19 24 1012.8 - - - - - - - - -
25/03:00am 20.1 SW 20 24 1013.0 - - - - - - - - -
25/02:30am 20.3 SW 20 24 1013.1 - - - - - - - - -
25/02:00am 20.6 SW 19 24 1013.3 - - - - - - - - -
25/01:30am 20.9 SW 19 23 1013.4 - - - - - - - - -
25/01:00am 21.1 SW 20 23 1013.4 - - - - - - - - -
25/12:30am 21.3 SW 18 23 1013.6 - - - - - - - - -
25/12:00am 21.6 SW 18 23 1013.6 - - - - - - - - -
 
Date/Time
WST
Temp
°C
Wind Pressure Rain since
9am
mm
Weather Cloud Vis
km
Sea
Height
m
Swell
Dir  Spd
kts
Gust
kts
hPa Trend Height
m
Period
s
Dir
24/11:30pm 21.9 WSW 18 23 1013.8 - - - - - - - - -
24/11:00pm 21.8 WSW 17 22 1013.9 - - - - - - - - -
24/10:30pm 21.9 WSW 18 22 1014.1 - - - - - - - - -
24/10:00pm 21.9 WSW 18 21 1014.1 - - - - - - - - -
24/09:30pm 21.7 WSW 16 19 1014.2 - - - - - - - - -
24/09:00pm 21.7 WSW 17 20 1014.0 - - - - - - - - -
24/08:30pm 21.7 WSW 16 20 1013.7 - - - - - - - - -
24/08:00pm 21.9 WSW 17 21 1013.5 - - - - - - - - -
24/07:30pm 22.1 WSW 16 20 1013.4 - - - - - - - - -
24/07:00pm 21.9 WSW 15 19 1013.1 - - - - - - - - -
24/06:30pm 21.7 WSW 13 16 1012.8 - - - - - - - - -
24/06:00pm 21.8 WSW 13 16 1012.7 - - - - - - - - -
24/05:30pm 21.9 W 12 15 1012.3 - - - - - - - - -
24/05:00pm 22.4 W 14 17 1012.1 - - - - - - - - -
24/04:30pm 22.7 W 14 16 1011.9 - - - - - - - - -
24/04:00pm 23.2 W 12 16 1011.8 - - - - - - - - -
24/03:30pm 23.7 W 12 14 1011.6 - - - - - - - - -
24/03:00pm 23.7 W 11 14 1011.6 - - - - - - - - -
24/02:30pm 24.2 W 12 15 1011.6 - - - - - - - - -
24/02:00pm 24.4 W 11 15 1011.8 - - - - - - - - -
24/01:30pm 24.3 WSW 13 15 1011.9 - - - - - - - - -
24/01:00pm 24.5 WSW 11 13 1012.4 - - - - - - - - -
24/12:30pm 23.6 WSW 10 12 1012.6 - - - - - - - - -
24/12:00pm 23.4 WSW 11 13 1013.2 - - - - - - - - -
24/11:30am 23.6 SW 10 13 1013.5 - - - - - - - - -
24/11:00am 23.1 SW 9 11 1014.2 - - - - - - - - -
24/10:30am 22.6 SW 8 10 1014.5 - - - - - - - - -
24/10:00am 21.9 SW 9 11 1014.8 - - - - - - - - -
24/09:30am 21.6 SW 8 9 1014.8 - - - - - - - - -
24/09:00am 21.9 SW 10 13 1014.7 - - - - - - - - -
24/08:30am 21.2 SW 11 13 1014.5 - - - - - - - - -
24/08:00am 20.4 SW 11 13 1014.0 - - - - - - - - -
24/07:30am 19.9 SW 11 13 1013.7 - - - - - - - - -
24/07:00am 19.5 SW 11 13 1013.4 - - - - - - - - -
24/06:30am 19.3 SW 10 13 1013.1 - - - - - - - - -
24/06:00am 19.5 SW 10 12 1012.8 - - - - - - - - -
24/05:30am 19.6 SW 9 12 1012.5 - - - - - - - - -
24/05:00am 20.2 SW 10 12 1012.4 - - - - - - - - -
24/04:30am 20.4 SW 12 14 1012.5 - - - - - - - - -
24/04:00am 20.4 SW 12 14 1012.6 - - - - - - - - -
24/03:30am 20.4 SW 12 14 1012.9 - - - - - - - - -
24/03:00am 20.6 SW 12 14 1012.9 - - - - - - - - -
24/02:30am 20.7 SW 12 14 1013.1 - - - - - - - - -
24/02:00am 20.8 SW 12 15 1013.1 - - - - - - - - -
24/01:30am 21.1 SW 13 15 1013.4 - - - - - - - - -
24/01:00am 21.3 SW 14 16 1013.7 - - - - - - - - -
24/12:30am 21.6 SW 14 18 1013.7 - - - - - - - - -
24/12:00am 21.8 SW 14 18 1013.6 - - - - - - - - -
 
Date/Time
WST
Temp
°C
Wind Pressure Rain since
9am
mm
Weather Cloud Vis
km
Sea
Height
m
Swell
Dir  Spd
kts
Gust
kts
hPa Trend Height
m
Period
s
Dir
23/11:30pm 22.0 SW 17 20 1013.9 - - - - - - - - -
23/11:00pm 22.1 SW 16 19 1014.2 - - - - - - - - -
23/10:30pm 22.0 SW 16 19 1014.4 - - - - - - - - -
23/10:00pm 21.9 SW 15 18 1014.3 - - - - - - - - -
23/09:30pm 22.0 WSW 15 19 1014.0 - - - - - - - - -
23/09:00pm 22.0 WSW 16 18 1013.9 - - - - - - - - -
23/08:30pm 21.9 WSW 15 17 1013.9 - - - - - - - - -
23/08:00pm 22.0 WSW 16 19 1013.8 - - - - - - - - -
23/07:30pm 22.2 WSW 17 21 1013.5 - - - - - - - - -
23/07:00pm 22.4 WSW 15 18 1013.4 - - - - - - - - -
23/06:30pm 22.9 WSW 16 18 1013.3 - - - - - - - - -
23/06:00pm 22.9 WSW 15 17 1013.1 - - - - - - - - -
23/05:30pm 23.0 WSW 13 17 1012.9 - - - - - - - - -
23/05:00pm 23.6 WSW 13 16 1012.7 - - - - - - - - -
23/04:30pm 24.4 WSW 12 16 1012.7 - - - - - - - - -
23/04:00pm 25.0 WSW 14 17 1012.6 - - - - - - - - -
23/03:30pm 25.8 WSW 13 15 1012.8 - - - - - - - - -
23/03:00pm 26.2 WSW 11 14 1012.9 - - - - - - - - -
23/02:30pm 25.8 WSW 11 13 1012.9 - - - - - - - - -
23/02:00pm 25.7 WSW 11 13 1013.3 - - - - - - - - -
23/01:30pm 26.1 WSW 10 12 1013.7 - - - - - - - - -
23/01:00pm 25.2 WSW 11 13 1014.1 - - - - - - - - -
23/12:30pm 25.4 SW 10 12 1014.5 - - - - - - - - -
23/12:00pm 25.2 SW 7 10 1015.0 - - - - - - - - -
23/11:30am 24.9 SW 8 11 1015.3 - - - - - - - - -
23/11:00am 24.7 SSW 8 10 1015.5 - - - - - - - - -
23/10:30am 24.5 SSW 9 10 1015.7 - - - - - - - - -
23/10:00am 23.7 SSW 11 13 1016.0 - - - - - - - - -
23/09:30am 22.7 SSW 13 15 1016.1 - - - - - - - - -
23/09:00am 21.9 SSW 13 16 1016.3 - - - - - - - - -
23/08:30am 21.7 SSW 14 17 1016.1 - - - - - - - - -
23/08:00am 21.4 SSW 12 15 1015.7 - - - - - - - - -
23/07:30am 20.9 SSW 13 17 1015.5 - - - - - - - - -
23/07:00am 20.3 SSW 10 12 1015.2 - - - - - - - - -
23/06:30am 20.6 SW 12 13 1014.9 - - - - - - - - -
23/06:00am 19.9 SSW 10 11 1014.8 - - - - - - - - -
23/05:30am 19.9 SSW 9 10 1014.6 - - - - - - - - -
23/05:00am 21.0 SSW 10 11 1014.5 - - - - - - - - -
23/04:30am 21.3 SW 10 11 1014.9 - - - - - - - - -
23/04:00am 21.5 SSW 10 13 1014.7 - - - - - - - - -
23/03:30am 21.8 SW 11 13 1014.9 - - - - - - - - -
23/03:00am 21.9 SSW 11 13 1014.8 - - - - - - - - -
23/02:30am 21.8 SSW 12 14 1014.9 - - - - - - - - -
23/02:00am 22.1 SSW 11 13 1015.0 - - - - - - - - -
23/01:30am 23.2 SSW 15 19 1015.0 - - - - - - - - -
23/01:00am 23.4 SW 15 19 1015.3 - - - - - - - - -
23/12:30am 23.5 SW 15 19 1015.3 - - - - - - - - -
23/12:00am 22.8 SSW 10 13 1015.4 - - - - - - - - -
 
Date/Time
WST
Temp
°C
Wind Pressure Rain since
9am
mm
Weather Cloud Vis
km
Sea
Height
m
Swell
Dir  Spd
kts
Gust
kts
hPa Trend Height
m
Period
s
Dir
22/11:30pm 23.5 SW 14 18 1015.9 - - - - - - - - -
22/11:00pm 23.8 SW 14 17 1015.7 - - - - - - - - -
22/10:30pm 23.6 SW 11 13 1015.9 - - - - - - - - -
22/10:00pm 23.9 SW 9 11 1016.0 - - - - - - - - -
22/09:30pm 24.0 WSW 9 10 1016.1 - - - - - - - - -
22/09:00pm 24.1 WSW 8 10 1015.9 - - - - - - - - -
22/08:30pm 24.2 W 8 10 1015.8 - - - - - - - - -
22/08:00pm 24.1 WNW 7 9 1015.6 - - - - - - - - -
22/07:30pm 24.0 WNW 7 9 1015.3 - - - - - - - - -
22/07:00pm 23.9 NW 6 7 1015.0 - - - - - - - - -
22/06:30pm 23.7 WNW 7 8 1015.1 - - - - - - - - -
22/06:00pm 23.2 WNW 6 7 1014.8 - - - - - - - - -
22/05:30pm 23.7 W 7 9 1014.5 - - - - - - - - -
22/05:00pm 25.0 W 8 10 1014.2 - - - - - - - - -
22/04:30pm 25.3 NW 6 7 1014.1 - - - - - - - - -
22/04:00pm 25.6 NNW 5 6 1014.0 - - - - - - - - -
22/03:30pm 25.6 N 6 7 1013.8 - - - - - - - - -
22/03:00pm 26.0 NNE 6 6 1014.0 - - - - - - - - -
22/02:30pm 26.8 NE 5 6 1014.4 - - - - - - - - -
22/02:00pm 26.7 N 4 5 1014.8 - - - - - - - - -
22/01:30pm 27.7 SW 3 7 1015.0 - - - - - - - - -
22/01:00pm 26.5 SW 6 9 1015.3 - - - - - - - - -
22/12:30pm 26.7 SSW 6 8 1015.6 - - - - - - - - -
22/12:00pm 25.7 SSW 8 11 1016.1 - - - - - - - - -

Other Formats:

Comma delimited format used in spreadsheet applications
http://www.bom.gov.au/fwo/IDW60701/IDW60701.94307.axf

JavaScript Object Notation format (JSON) in row-major order
http://www.bom.gov.au/fwo/IDW60701/IDW60701.94307.json